sensor_id;sensor_type;location;lat;lon;timestamp;P1;durP1;ratioP1;P2;durP2;ratioP2
58516;SDS011;44308;50.810;0.284;2022-09-20T00:01:58;8.02;;;5.75;;
58516;SDS011;44308;50.810;0.284;2022-09-20T00:04:23;6.60;;;5.38;;
58516;SDS011;44308;50.810;0.284;2022-09-20T00:06:49;5.70;;;4.97;;
58516;SDS011;44308;50.810;0.284;2022-09-20T00:09:15;5.45;;;4.75;;
58516;SDS011;44308;50.810;0.284;2022-09-20T00:11:40;6.47;;;4.93;;
58516;SDS011;44308;50.810;0.284;2022-09-20T00:14:07;6.78;;;4.90;;
58516;SDS011;44308;50.810;0.284;2022-09-20T00:16:34;5.30;;;4.70;;
58516;SDS011;44308;50.810;0.284;2022-09-20T00:19:03;5.63;;;5.07;;
58516;SDS011;44308;50.810;0.284;2022-09-20T00:21:30;10.10;;;5.47;;
58516;SDS011;44308;50.810;0.284;2022-09-20T00:23:57;6.93;;;5.38;;
58516;SDS011;44308;50.810;0.284;2022-09-20T00:26:23;6.53;;;4.85;;
58516;SDS011;44308;50.810;0.284;2022-09-20T00:28:50;9.50;;;5.65;;
58516;SDS011;44308;50.810;0.284;2022-09-20T00:31:16;6.82;;;5.35;;
58516;SDS011;44308;50.810;0.284;2022-09-20T00:33:42;9.18;;;5.80;;
58516;SDS011;44308;50.810;0.284;2022-09-20T00:36:26;7.53;;;5.00;;
58516;SDS011;44308;50.810;0.284;2022-09-20T00:38:56;6.55;;;5.85;;
58516;SDS011;44308;50.810;0.284;2022-09-20T00:41:23;8.55;;;5.97;;
58516;SDS011;44308;50.810;0.284;2022-09-20T00:43:50;6.15;;;5.07;;
58516;SDS011;44308;50.810;0.284;2022-09-20T00:49:18;9.80;;;5.88;;
58516;SDS011;44308;50.810;0.284;2022-09-20T00:51:48;7.18;;;5.55;;
58516;SDS011;44308;50.810;0.284;2022-09-20T00:54:19;6.47;;;5.72;;
58516;SDS011;44308;50.810;0.284;2022-09-20T00:56:51;15.95;;;5.60;;
58516;SDS011;44308;50.810;0.284;2022-09-20T01:01:55;9.82;;;5.75;;
58516;SDS011;44308;50.810;0.284;2022-09-20T01:04:33;7.40;;;5.65;;
58516;SDS011;44308;50.810;0.284;2022-09-20T01:07:03;6.00;;;5.43;;
58516;SDS011;44308;50.810;0.284;2022-09-20T01:09:31;11.75;;;6.28;;
58516;SDS011;44308;50.810;0.284;2022-09-20T01:11:56;6.72;;;5.47;;
58516;SDS011;44308;50.810;0.284;2022-09-20T01:14:26;8.32;;;6.32;;
58516;SDS011;44308;50.810;0.284;2022-09-20T01:16:52;11.88;;;5.30;;
58516;SDS011;44308;50.810;0.284;2022-09-20T01:19:46;7.25;;;6.03;;
58516;SDS011;44308;50.810;0.284;2022-09-20T01:22:16;7.80;;;5.38;;
58516;SDS011;44308;50.810;0.284;2022-09-20T01:24:59;9.23;;;5.97;;
58516;SDS011;44308;50.810;0.284;2022-09-20T01:27:46;6.57;;;6.03;;
58516;SDS011;44308;50.810;0.284;2022-09-20T01:30:18;7.38;;;6.07;;
58516;SDS011;44308;50.810;0.284;2022-09-20T01:35:24;6.78;;;5.18;;
58516;SDS011;44308;50.810;0.284;2022-09-20T01:38:03;6.25;;;5.35;;
58516;SDS011;44308;50.810;0.284;2022-09-20T01:40:36;8.70;;;6.20;;
58516;SDS011;44308;50.810;0.284;2022-09-20T01:43:14;5.28;;;4.78;;
58516;SDS011;44308;50.810;0.284;2022-09-20T01:46:13;6.88;;;5.80;;
58516;SDS011;44308;50.810;0.284;2022-09-20T01:49:13;9.70;;;6.82;;
58516;SDS011;44308;50.810;0.284;2022-09-20T01:57:38;6.85;;;5.20;;
58516;SDS011;44308;50.810;0.284;2022-09-20T02:00:26;8.52;;;5.78;;
58516;SDS011;44308;50.810;0.284;2022-09-20T02:11:16;7.38;;;5.40;;
58516;SDS011;44308;50.810;0.284;2022-09-20T02:16:47;8.48;;;6.00;;
58516;SDS011;44308;50.810;0.284;2022-09-20T02:20:01;6.28;;;4.75;;
58516;SDS011;44308;50.810;0.284;2022-09-20T02:22:35;9.77;;;5.93;;
58516;SDS011;44308;50.810;0.284;2022-09-20T02:30:48;10.13;;;4.97;;
58516;SDS011;44308;50.810;0.284;2022-09-20T02:33:39;5.93;;;5.30;;
58516;SDS011;44308;50.810;0.284;2022-09-20T02:39:14;6.72;;;4.97;;
58516;SDS011;44308;50.810;0.284;2022-09-20T02:44:38;5.05;;;4.63;;
58516;SDS011;44308;50.810;0.284;2022-09-20T02:55:35;14.93;;;4.82;;
58516;SDS011;44308;50.810;0.284;2022-09-20T02:58:22;5.35;;;4.72;;
58516;SDS011;44308;50.810;0.284;2022-09-20T03:08:49;5.10;;;4.47;;
58516;SDS011;44308;50.810;0.284;2022-09-20T03:11:34;6.80;;;5.35;;
58516;SDS011;44308;50.810;0.284;2022-09-20T03:14:28;8.20;;;5.70;;
58516;SDS011;44308;50.810;0.284;2022-09-20T03:31:18;6.70;;;5.80;;
58516;SDS011;44308;50.810;0.284;2022-09-20T03:42:14;12.23;;;7.38;;
58516;SDS011;44308;50.810;0.284;2022-09-20T03:53:26;8.30;;;7.40;;
58516;SDS011;44308;50.810;0.284;2022-09-20T04:04:41;10.73;;;8.07;;
58516;SDS011;44308;50.810;0.284;2022-09-20T04:20:36;12.02;;;8.63;;
58516;SDS011;44308;50.810;0.284;2022-09-20T04:25:56;9.05;;;8.13;;
58516;SDS011;44308;50.810;0.284;2022-09-20T04:28:42;10.27;;;8.23;;
58516;SDS011;44308;50.810;0.284;2022-09-20T04:33:56;9.20;;;8.35;;
58516;SDS011;44308;50.810;0.284;2022-09-20T04:44:32;11.35;;;8.85;;
58516;SDS011;44308;50.810;0.284;2022-09-20T04:53:13;9.38;;;8.20;;
58516;SDS011;44308;50.810;0.284;2022-09-20T04:56:07;14.45;;;8.63;;
58516;SDS011;44308;50.810;0.284;2022-09-20T04:59:06;8.25;;;7.45;;
58516;SDS011;44308;50.810;0.284;2022-09-20T05:27:57;10.63;;;9.43;;
58516;SDS011;44308;50.810;0.284;2022-09-20T05:30:34;12.40;;;9.88;;
58516;SDS011;44308;50.810;0.284;2022-09-20T05:46:31;10.85;;;9.85;;
58516;SDS011;44308;50.810;0.284;2022-09-20T06:00:41;10.35;;;9.30;;
58516;SDS011;44308;50.810;0.284;2022-09-20T06:03:15;12.40;;;11.30;;
58516;SDS011;44308;50.810;0.284;2022-09-20T06:14:57;10.90;;;9.60;;
58516;SDS011;44308;50.810;0.284;2022-09-20T06:23:27;11.48;;;10.30;;
58516;SDS011;44308;50.810;0.284;2022-09-20T06:25:55;13.68;;;11.20;;
58516;SDS011;44308;50.810;0.284;2022-09-20T06:28:30;12.30;;;11.13;;
58516;SDS011;44308;50.810;0.284;2022-09-20T06:30:59;14.38;;;10.93;;
58516;SDS011;44308;50.810;0.284;2022-09-20T06:33:26;10.32;;;9.30;;
58516;SDS011;44308;50.810;0.284;2022-09-20T06:36:12;9.95;;;8.65;;
58516;SDS011;44308;50.810;0.284;2022-09-20T06:42:17;14.80;;;8.50;;
58516;SDS011;44308;50.810;0.284;2022-09-20T06:44:44;8.57;;;7.68;;
58516;SDS011;44308;50.810;0.284;2022-09-20T06:47:11;10.57;;;7.70;;
58516;SDS011;44308;50.810;0.284;2022-09-20T06:49:39;8.70;;;7.00;;
58516;SDS011;44308;50.810;0.284;2022-09-20T06:52:14;9.93;;;7.57;;
58516;SDS011;44308;50.810;0.284;2022-09-20T06:54:45;8.80;;;6.68;;
58516;SDS011;44308;50.810;0.284;2022-09-20T06:57:20;8.07;;;6.55;;
58516;SDS011;44308;50.810;0.284;2022-09-20T06:59:50;14.30;;;6.18;;
58516;SDS011;44308;50.810;0.284;2022-09-20T07:02:16;10.98;;;6.03;;
58516;SDS011;44308;50.810;0.284;2022-09-20T07:04:43;7.20;;;5.57;;
58516;SDS011;44308;50.810;0.284;2022-09-20T07:07:11;5.32;;;4.57;;
58516;SDS011;44308;50.810;0.284;2022-09-20T07:09:41;10.20;;;5.15;;
58516;SDS011;44308;50.810;0.284;2022-09-20T07:12:06;6.80;;;5.10;;
58516;SDS011;44308;50.810;0.284;2022-09-20T07:14:35;6.55;;;4.95;;
58516;SDS011;44308;50.810;0.284;2022-09-20T07:17:01;7.32;;;5.07;;
58516;SDS011;44308;50.810;0.284;2022-09-20T07:19:27;5.47;;;4.40;;
58516;SDS011;44308;50.810;0.284;2022-09-20T07:21:53;6.97;;;4.95;;
58516;SDS011;44308;50.810;0.284;2022-09-20T07:24:18;5.63;;;4.20;;
58516;SDS011;44308;50.810;0.284;2022-09-20T07:26:56;6.40;;;4.45;;
58516;SDS011;44308;50.810;0.284;2022-09-20T07:29:24;8.15;;;4.80;;
58516;SDS011;44308;50.810;0.284;2022-09-20T07:31:51;6.35;;;4.05;;
58516;SDS011;44308;50.810;0.284;2022-09-20T07:34:17;7.85;;;4.15;;
58516;SDS011;44308;50.810;0.284;2022-09-20T07:36:45;4.80;;;3.42;;
58516;SDS011;44308;50.810;0.284;2022-09-20T07:39:17;7.20;;;3.83;;
58516;SDS011;44308;50.810;0.284;2022-09-20T07:41:42;3.50;;;3.20;;
58516;SDS011;44308;50.810;0.284;2022-09-20T07:44:14;4.45;;;3.42;;
58516;SDS011;44308;50.810;0.284;2022-09-20T07:46:55;8.30;;;3.20;;
58516;SDS011;44308;50.810;0.284;2022-09-20T07:49:26;3.97;;;2.58;;
58516;SDS011;44308;50.810;0.284;2022-09-20T07:51:55;2.80;;;2.10;;
58516;SDS011;44308;50.810;0.284;2022-09-20T07:54:21;6.13;;;2.20;;
58516;SDS011;44308;50.810;0.284;2022-09-20T07:56:48;6.18;;;2.55;;
58516;SDS011;44308;50.810;0.284;2022-09-20T07:59:14;5.35;;;2.35;;
58516;SDS011;44308;50.810;0.284;2022-09-20T08:01:40;4.05;;;2.40;;
58516;SDS011;44308;50.810;0.284;2022-09-20T08:04:07;2.90;;;2.13;;
58516;SDS011;44308;50.810;0.284;2022-09-20T08:06:41;4.78;;;2.25;;
58516;SDS011;44308;50.810;0.284;2022-09-20T08:09:08;3.28;;;1.95;;
58516;SDS011;44308;50.810;0.284;2022-09-20T08:11:35;4.75;;;2.80;;
58516;SDS011;44308;50.810;0.284;2022-09-20T08:14:02;3.13;;;2.58;;
58516;SDS011;44308;50.810;0.284;2022-09-20T08:16:28;2.70;;;2.22;;
58516;SDS011;44308;50.810;0.284;2022-09-20T08:18:56;4.13;;;2.33;;
58516;SDS011;44308;50.810;0.284;2022-09-20T08:21:24;2.47;;;1.70;;
58516;SDS011;44308;50.810;0.284;2022-09-20T08:23:52;2.92;;;1.85;;
58516;SDS011;44308;50.810;0.284;2022-09-20T08:26:19;2.63;;;2.08;;
58516;SDS011;44308;50.810;0.284;2022-09-20T08:28:50;5.45;;;1.80;;
58516;SDS011;44308;50.810;0.284;2022-09-20T08:31:17;4.85;;;2.10;;
58516;SDS011;44308;50.810;0.284;2022-09-20T08:33:45;8.77;;;2.25;;
58516;SDS011;44308;50.810;0.284;2022-09-20T08:36:12;2.65;;;1.80;;
58516;SDS011;44308;50.810;0.284;2022-09-20T08:38:39;2.67;;;1.70;;
58516;SDS011;44308;50.810;0.284;2022-09-20T08:44:01;2.00;;;1.33;;
58516;SDS011;44308;50.810;0.284;2022-09-20T08:46:36;3.85;;;2.08;;
58516;SDS011;44308;50.810;0.284;2022-09-20T08:49:05;9.30;;;2.13;;
58516;SDS011;44308;50.810;0.284;2022-09-20T08:51:35;3.63;;;2.22;;
58516;SDS011;44308;50.810;0.284;2022-09-20T08:54:05;6.90;;;2.45;;
58516;SDS011;44308;50.810;0.284;2022-09-20T08:56:40;4.47;;;2.10;;
58516;SDS011;44308;50.810;0.284;2022-09-20T08:59:07;5.38;;;2.45;;
58516;SDS011;44308;50.810;0.284;2022-09-20T09:01:39;2.20;;;2.03;;
58516;SDS011;44308;50.810;0.284;2022-09-20T09:04:14;3.05;;;2.28;;
58516;SDS011;44308;50.810;0.284;2022-09-20T09:06:43;6.40;;;2.67;;
58516;SDS011;44308;50.810;0.284;2022-09-20T09:09:13;3.28;;;2.20;;
58516;SDS011;44308;50.810;0.284;2022-09-20T09:11:50;1.92;;;1.80;;
58516;SDS011;44308;50.810;0.284;2022-09-20T09:14:22;4.10;;;2.17;;
58516;SDS011;44308;50.810;0.284;2022-09-20T09:17:10;5.28;;;2.22;;
58516;SDS011;44308;50.810;0.284;2022-09-20T09:19:42;4.60;;;2.03;;
58516;SDS011;44308;50.810;0.284;2022-09-20T09:22:28;3.92;;;2.75;;
58516;SDS011;44308;50.810;0.284;2022-09-20T09:30:31;4.97;;;2.80;;
58516;SDS011;44308;50.810;0.284;2022-09-20T09:35:45;4.82;;;3.00;;
58516;SDS011;44308;50.810;0.284;2022-09-20T09:38:33;7.80;;;2.92;;
58516;SDS011;44308;50.810;0.284;2022-09-20T09:41:04;11.30;;;3.90;;
58516;SDS011;44308;50.810;0.284;2022-09-20T09:43:35;6.82;;;3.08;;
58516;SDS011;44308;50.810;0.284;2022-09-20T09:46:17;2.47;;;2.20;;
58516;SDS011;44308;50.810;0.284;2022-09-20T09:51:32;2.85;;;1.95;;
58516;SDS011;44308;50.810;0.284;2022-09-20T09:53:59;4.25;;;2.75;;
58516;SDS011;44308;50.810;0.284;2022-09-20T10:10:00;4.55;;;3.38;;
58516;SDS011;44308;50.810;0.284;2022-09-20T10:15:27;3.42;;;2.33;;
58516;SDS011;44308;50.810;0.284;2022-09-20T10:23:33;6.40;;;3.60;;
58516;SDS011;44308;50.810;0.284;2022-09-20T10:29:02;2.17;;;1.70;;
58516;SDS011;44308;50.810;0.284;2022-09-20T10:35:02;1.45;;;1.35;;
58516;SDS011;44308;50.810;0.284;2022-09-20T10:37:36;5.35;;;1.80;;
58516;SDS011;44308;50.810;0.284;2022-09-20T10:42:48;2.50;;;2.20;;
58516;SDS011;44308;50.810;0.284;2022-09-20T10:46:19;1.73;;;1.63;;
58516;SDS011;44308;50.810;0.284;2022-09-20T10:48:41;4.18;;;1.65;;
58516;SDS011;44308;50.810;0.284;2022-09-20T10:53:50;2.58;;;1.83;;
58516;SDS011;44308;50.810;0.284;2022-09-20T11:10:27;2.00;;;1.52;;
58516;SDS011;44308;50.810;0.284;2022-09-20T11:13:25;3.10;;;2.15;;
58516;SDS011;44308;50.810;0.284;2022-09-20T11:15:59;2.45;;;2.10;;
58516;SDS011;44308;50.810;0.284;2022-09-20T11:18:38;3.03;;;1.90;;
58516;SDS011;44308;50.810;0.284;2022-09-20T11:21:13;2.05;;;1.52;;
58516;SDS011;44308;50.810;0.284;2022-09-20T11:26:38;3.10;;;1.75;;
58516;SDS011;44308;50.810;0.284;2022-09-20T11:31:56;1.85;;;1.52;;
58516;SDS011;44308;50.810;0.284;2022-09-20T11:37:05;1.95;;;1.33;;
58516;SDS011;44308;50.810;0.284;2022-09-20T11:39:38;2.97;;;1.70;;
58516;SDS011;44308;50.810;0.284;2022-09-20T11:42:20;1.65;;;1.40;;
58516;SDS011;44308;50.810;0.284;2022-09-20T11:47:56;1.42;;;1.33;;
58516;SDS011;44308;50.810;0.284;2022-09-20T11:56:21;2.85;;;1.63;;
58516;SDS011;44308;50.810;0.284;2022-09-20T11:58:52;1.90;;;1.27;;
58516;SDS011;44308;50.810;0.284;2022-09-20T12:03:56;1.17;;;0.90;;
58516;SDS011;44308;50.810;0.284;2022-09-20T12:08:55;1.83;;;1.65;;
58516;SDS011;44308;50.810;0.284;2022-09-20T12:11:30;2.15;;;1.60;;
58516;SDS011;44308;50.810;0.284;2022-09-20T12:14:16;2.25;;;1.42;;
58516;SDS011;44308;50.810;0.284;2022-09-20T12:16:53;1.83;;;1.20;;
58516;SDS011;44308;50.810;0.284;2022-09-20T12:26:50;3.97;;;1.75;;
58516;SDS011;44308;50.810;0.284;2022-09-20T12:31:54;1.15;;;0.98;;
58516;SDS011;44308;50.810;0.284;2022-09-20T12:34:42;2.17;;;1.10;;
58516;SDS011;44308;50.810;0.284;2022-09-20T12:37:15;2.28;;;1.13;;
58516;SDS011;44308;50.810;0.284;2022-09-20T12:39:49;2.03;;;1.48;;
58516;SDS011;44308;50.810;0.284;2022-09-20T12:48:14;1.60;;;0.77;;
58516;SDS011;44308;50.810;0.284;2022-09-20T12:51:01;3.65;;;1.33;;
58516;SDS011;44308;50.810;0.284;2022-09-20T12:57:16;1.42;;;1.05;;
58516;SDS011;44308;50.810;0.284;2022-09-20T12:59:55;1.35;;;1.10;;
58516;SDS011;44308;50.810;0.284;2022-09-20T13:02:42;1.48;;;1.20;;
58516;SDS011;44308;50.810;0.284;2022-09-20T13:08:25;1.63;;;0.70;;
58516;SDS011;44308;50.810;0.284;2022-09-20T13:11:09;1.38;;;0.80;;
58516;SDS011;44308;50.810;0.284;2022-09-20T13:18:53;1.17;;;0.67;;
58516;SDS011;44308;50.810;0.284;2022-09-20T13:21:28;0.60;;;0.60;;
58516;SDS011;44308;50.810;0.284;2022-09-20T13:23:55;1.73;;;1.10;;
58516;SDS011;44308;50.810;0.284;2022-09-20T13:26:23;1.00;;;0.90;;
58516;SDS011;44308;50.810;0.284;2022-09-20T13:28:55;1.65;;;1.15;;
58516;SDS011;44308;50.810;0.284;2022-09-20T13:31:24;1.63;;;1.00;;
58516;SDS011;44308;50.810;0.284;2022-09-20T13:33:50;0.98;;;0.70;;
58516;SDS011;44308;50.810;0.284;2022-09-20T13:36:39;1.50;;;0.95;;
58516;SDS011;44308;50.810;0.284;2022-09-20T13:39:05;1.60;;;1.05;;
58516;SDS011;44308;50.810;0.284;2022-09-20T13:41:32;4.43;;;1.23;;
58516;SDS011;44308;50.810;0.284;2022-09-20T13:43:59;1.40;;;0.98;;
58516;SDS011;44308;50.810;0.284;2022-09-20T13:46:30;2.35;;;0.80;;
58516;SDS011;44308;50.810;0.284;2022-09-20T13:51:31;1.85;;;0.80;;
58516;SDS011;44308;50.810;0.284;2022-09-20T13:56:49;1.48;;;0.95;;
58516;SDS011;44308;50.810;0.284;2022-09-20T13:59:15;0.80;;;0.80;;
58516;SDS011;44308;50.810;0.284;2022-09-20T14:01:46;0.70;;;0.60;;
58516;SDS011;44308;50.810;0.284;2022-09-20T14:04:26;1.63;;;1.08;;
58516;SDS011;44308;50.810;0.284;2022-09-20T14:06:55;1.95;;;0.98;;
58516;SDS011;44308;50.810;0.284;2022-09-20T14:09:30;1.00;;;0.80;;
58516;SDS011;44308;50.810;0.284;2022-09-20T14:12:03;3.10;;;0.85;;
58516;SDS011;44308;50.810;0.284;2022-09-20T14:14:32;2.65;;;1.25;;
58516;SDS011;44308;50.810;0.284;2022-09-20T14:17:00;0.95;;;0.82;;
58516;SDS011;44308;50.810;0.284;2022-09-20T14:19:32;1.67;;;1.10;;
58516;SDS011;44308;50.810;0.284;2022-09-20T14:22:03;1.42;;;1.27;;
58516;SDS011;44308;50.810;0.284;2022-09-20T14:24:34;2.95;;;0.80;;
58516;SDS011;44308;50.810;0.284;2022-09-20T14:29:47;4.38;;;1.05;;
58516;SDS011;44308;50.810;0.284;2022-09-20T14:42:59;0.93;;;0.75;;
58516;SDS011;44308;50.810;0.284;2022-09-20T14:45:29;0.63;;;0.57;;
58516;SDS011;44308;50.810;0.284;2022-09-20T14:48:03;0.60;;;0.60;;
58516;SDS011;44308;50.810;0.284;2022-09-20T14:50:36;1.65;;;0.77;;
58516;SDS011;44308;50.810;0.284;2022-09-20T14:53:05;1.27;;;0.73;;
58516;SDS011;44308;50.810;0.284;2022-09-20T14:55:31;1.02;;;0.70;;
58516;SDS011;44308;50.810;0.284;2022-09-20T14:58:00;1.25;;;0.65;;
58516;SDS011;44308;50.810;0.284;2022-09-20T15:00:28;2.42;;;0.90;;
58516;SDS011;44308;50.810;0.284;2022-09-20T15:03:00;1.55;;;1.00;;
58516;SDS011;44308;50.810;0.284;2022-09-20T15:05:29;1.00;;;0.88;;
58516;SDS011;44308;50.810;0.284;2022-09-20T15:07:55;1.27;;;0.95;;
58516;SDS011;44308;50.810;0.284;2022-09-20T15:10:22;0.80;;;0.80;;
58516;SDS011;44308;50.810;0.284;2022-09-20T15:12:48;0.90;;;0.80;;
58516;SDS011;44308;50.810;0.284;2022-09-20T15:18:01;2.42;;;1.05;;
58516;SDS011;44308;50.810;0.284;2022-09-20T15:20:27;4.32;;;0.98;;
58516;SDS011;44308;50.810;0.284;2022-09-20T15:22:53;1.80;;;0.93;;
58516;SDS011;44308;50.810;0.284;2022-09-20T15:25:21;4.25;;;1.10;;
58516;SDS011;44308;50.810;0.284;2022-09-20T15:27:47;19.38;;;1.88;;
58516;SDS011;44308;50.810;0.284;2022-09-20T15:30:16;2.90;;;1.38;;
58516;SDS011;44308;50.810;0.284;2022-09-20T15:32:46;9.32;;;0.98;;
58516;SDS011;44308;50.810;0.284;2022-09-20T15:35:12;33.33;;;16.00;;
58516;SDS011;44308;50.810;0.284;2022-09-20T15:37:38;15.57;;;7.90;;
58516;SDS011;44308;50.810;0.284;2022-09-20T15:40:04;4.50;;;1.33;;
58516;SDS011;44308;50.810;0.284;2022-09-20T15:42:32;2.03;;;1.13;;
58516;SDS011;44308;50.810;0.284;2022-09-20T15:45:03;1.73;;;1.00;;
58516;SDS011;44308;50.810;0.284;2022-09-20T15:47:31;1.05;;;0.80;;
58516;SDS011;44308;50.810;0.284;2022-09-20T15:49:56;5.45;;;1.40;;
58516;SDS011;44308;50.810;0.284;2022-09-20T15:52:24;6.25;;;0.82;;
58516;SDS011;44308;50.810;0.284;2022-09-20T15:54:51;1.27;;;0.95;;
58516;SDS011;44308;50.810;0.284;2022-09-20T15:57:17;3.50;;;1.30;;
58516;SDS011;44308;50.810;0.284;2022-09-20T15:59:43;1.85;;;1.23;;
58516;SDS011;44308;50.810;0.284;2022-09-20T16:02:09;2.45;;;0.93;;
58516;SDS011;44308;50.810;0.284;2022-09-20T16:04:39;1.08;;;1.00;;
58516;SDS011;44308;50.810;0.284;2022-09-20T16:07:04;1.80;;;1.40;;
58516;SDS011;44308;50.810;0.284;2022-09-20T16:09:33;3.67;;;1.40;;
58516;SDS011;44308;50.810;0.284;2022-09-20T16:12:02;4.50;;;1.25;;
58516;SDS011;44308;50.810;0.284;2022-09-20T16:14:28;2.80;;;1.27;;
58516;SDS011;44308;50.810;0.284;2022-09-20T16:16:54;1.90;;;1.33;;
58516;SDS011;44308;50.810;0.284;2022-09-20T16:19:20;1.63;;;1.35;;
58516;SDS011;44308;50.810;0.284;2022-09-20T16:21:51;1.90;;;1.42;;
58516;SDS011;44308;50.810;0.284;2022-09-20T16:24:22;1.50;;;1.40;;
58516;SDS011;44308;50.810;0.284;2022-09-20T16:26:49;1.77;;;1.40;;
58516;SDS011;44308;50.810;0.284;2022-09-20T16:29:15;6.15;;;1.75;;
58516;SDS011;44308;50.810;0.284;2022-09-20T16:31:45;1.73;;;1.27;;
58516;SDS011;44308;50.810;0.284;2022-09-20T16:34:46;3.38;;;1.70;;
58516;SDS011;44308;50.810;0.284;2022-09-20T16:37:06;2.63;;;1.80;;
58516;SDS011;44308;50.810;0.284;2022-09-20T16:39:41;3.55;;;1.73;;
58516;SDS011;44308;50.810;0.284;2022-09-20T16:42:09;1.83;;;1.70;;
58516;SDS011;44308;50.810;0.284;2022-09-20T16:44:37;1.55;;;1.45;;
58516;SDS011;44308;50.810;0.284;2022-09-20T16:47:05;3.55;;;2.15;;
58516;SDS011;44308;50.810;0.284;2022-09-20T16:49:33;2.30;;;1.50;;
58516;SDS011;44308;50.810;0.284;2022-09-20T16:52:00;1.60;;;1.40;;
58516;SDS011;44308;50.810;0.284;2022-09-20T16:54:28;4.68;;;1.33;;
58516;SDS011;44308;50.810;0.284;2022-09-20T16:56:54;1.40;;;1.30;;
58516;SDS011;44308;50.810;0.284;2022-09-20T16:59:20;1.45;;;1.13;;
58516;SDS011;44308;50.810;0.284;2022-09-20T17:01:46;1.20;;;1.02;;
58516;SDS011;44308;50.810;0.284;2022-09-20T17:04:13;2.00;;;1.70;;
58516;SDS011;44308;50.810;0.284;2022-09-20T17:06:41;3.30;;;1.30;;
58516;SDS011;44308;50.810;0.284;2022-09-20T17:09:10;11.55;;;1.70;;
58516;SDS011;44308;50.810;0.284;2022-09-20T17:11:38;2.45;;;1.10;;
58516;SDS011;44308;50.810;0.284;2022-09-20T17:14:06;1.90;;;1.52;;
58516;SDS011;44308;50.810;0.284;2022-09-20T17:16:34;4.65;;;1.10;;
58516;SDS011;44308;50.810;0.284;2022-09-20T17:19:08;2.72;;;1.40;;
58516;SDS011;44308;50.810;0.284;2022-09-20T17:21:36;1.77;;;1.30;;
58516;SDS011;44308;50.810;0.284;2022-09-20T17:24:05;3.30;;;1.27;;
58516;SDS011;44308;50.810;0.284;2022-09-20T17:26:32;2.17;;;0.88;;
58516;SDS011;44308;50.810;0.284;2022-09-20T17:29:02;4.32;;;0.88;;
58516;SDS011;44308;50.810;0.284;2022-09-20T17:31:31;2.97;;;0.98;;
58516;SDS011;44308;50.810;0.284;2022-09-20T17:34:02;2.10;;;0.90;;
58516;SDS011;44308;50.810;0.284;2022-09-20T17:36:35;0.77;;;0.60;;
58516;SDS011;44308;50.810;0.284;2022-09-20T17:39:04;0.80;;;0.80;;
58516;SDS011;44308;50.810;0.284;2022-09-20T17:41:34;1.20;;;0.90;;
58516;SDS011;44308;50.810;0.284;2022-09-20T17:44:01;3.10;;;1.30;;
58516;SDS011;44308;50.810;0.284;2022-09-20T17:46:32;2.67;;;1.10;;
58516;SDS011;44308;50.810;0.284;2022-09-20T17:49:01;1.50;;;0.80;;
58516;SDS011;44308;50.810;0.284;2022-09-20T17:51:48;6.63;;;1.13;;
58516;SDS011;44308;50.810;0.284;2022-09-20T17:54:16;1.88;;;0.90;;
58516;SDS011;44308;50.810;0.284;2022-09-20T17:56:46;2.45;;;1.15;;
58516;SDS011;44308;50.810;0.284;2022-09-20T17:59:14;1.45;;;1.05;;
58516;SDS011;44308;50.810;0.284;2022-09-20T18:01:41;1.83;;;0.95;;
58516;SDS011;44308;50.810;0.284;2022-09-20T18:04:12;11.52;;;1.38;;
58516;SDS011;44308;50.810;0.284;2022-09-20T18:06:39;1.50;;;0.98;;
58516;SDS011;44308;50.810;0.284;2022-09-20T18:09:10;6.72;;;1.02;;
58516;SDS011;44308;50.810;0.284;2022-09-20T18:11:39;14.13;;;1.10;;
58516;SDS011;44308;50.810;0.284;2022-09-20T18:14:08;1.00;;;0.90;;
58516;SDS011;44308;50.810;0.284;2022-09-20T18:16:34;2.33;;;0.90;;
58516;SDS011;44308;50.810;0.284;2022-09-20T18:19:01;2.63;;;1.20;;
58516;SDS011;44308;50.810;0.284;2022-09-20T18:21:29;4.15;;;1.67;;
58516;SDS011;44308;50.810;0.284;2022-09-20T18:23:58;3.65;;;1.42;;
58516;SDS011;44308;50.810;0.284;2022-09-20T18:26:26;1.75;;;1.15;;
58516;SDS011;44308;50.810;0.284;2022-09-20T18:29:01;3.00;;;1.10;;
58516;SDS011;44308;50.810;0.284;2022-09-20T18:31:42;1.55;;;0.80;;
58516;SDS011;44308;50.810;0.284;2022-09-20T18:34:11;2.95;;;1.40;;
58516;SDS011;44308;50.810;0.284;2022-09-20T18:36:54;2.58;;;1.45;;
58516;SDS011;44308;50.810;0.284;2022-09-20T18:39:28;4.25;;;1.38;;
58516;SDS011;44308;50.810;0.284;2022-09-20T18:41:59;7.50;;;1.88;;
58516;SDS011;44308;50.810;0.284;2022-09-20T18:44:26;2.85;;;1.52;;
58516;SDS011;44308;50.810;0.284;2022-09-20T18:46:52;3.60;;;1.20;;
58516;SDS011;44308;50.810;0.284;2022-09-20T18:49:18;4.32;;;1.92;;
58516;SDS011;44308;50.810;0.284;2022-09-20T18:51:45;2.72;;;1.08;;
58516;SDS011;44308;50.810;0.284;2022-09-20T18:54:12;2.55;;;1.38;;
58516;SDS011;44308;50.810;0.284;2022-09-20T18:56:39;23.00;;;2.00;;
58516;SDS011;44308;50.810;0.284;2022-09-20T18:59:13;1.98;;;1.40;;
58516;SDS011;44308;50.810;0.284;2022-09-20T19:07:30;4.63;;;1.30;;
58516;SDS011;44308;50.810;0.284;2022-09-20T19:12:58;6.18;;;1.70;;
58516;SDS011;44308;50.810;0.284;2022-09-20T19:26:35;4.20;;;3.13;;
58516;SDS011;44308;50.810;0.284;2022-09-20T19:29:03;11.45;;;3.72;;
58516;SDS011;44308;50.810;0.284;2022-09-20T19:31:41;3.42;;;3.13;;
58516;SDS011;44308;50.810;0.284;2022-09-20T19:34:40;14.02;;;3.83;;
58516;SDS011;44308;50.810;0.284;2022-09-20T19:50:41;6.82;;;2.65;;
58516;SDS011;44308;50.810;0.284;2022-09-20T19:53:11;8.35;;;2.92;;
58516;SDS011;44308;50.810;0.284;2022-09-20T19:55:38;9.10;;;2.33;;
58516;SDS011;44308;50.810;0.284;2022-09-20T19:58:09;6.20;;;2.25;;
58516;SDS011;44308;50.810;0.284;2022-09-20T20:00:35;12.35;;;3.08;;
58516;SDS011;44308;50.810;0.284;2022-09-20T20:03:01;6.57;;;2.33;;
58516;SDS011;44308;50.810;0.284;2022-09-20T20:05:27;5.28;;;2.40;;
58516;SDS011;44308;50.810;0.284;2022-09-20T20:10:25;3.22;;;1.88;;
58516;SDS011;44308;50.810;0.284;2022-09-20T20:16:05;3.13;;;2.38;;
58516;SDS011;44308;50.810;0.284;2022-09-20T20:21:06;2.67;;;2.13;;
58516;SDS011;44308;50.810;0.284;2022-09-20T20:26:21;6.50;;;2.28;;
58516;SDS011;44308;50.810;0.284;2022-09-20T20:28:50;2.60;;;2.10;;
58516;SDS011;44308;50.810;0.284;2022-09-20T20:31:20;5.53;;;2.65;;
58516;SDS011;44308;50.810;0.284;2022-09-20T20:33:47;2.42;;;1.83;;
58516;SDS011;44308;50.810;0.284;2022-09-20T20:36:14;3.03;;;2.35;;
58516;SDS011;44308;50.810;0.284;2022-09-20T20:38:41;3.88;;;2.10;;
58516;SDS011;44308;50.810;0.284;2022-09-20T20:41:13;2.13;;;1.92;;
58516;SDS011;44308;50.810;0.284;2022-09-20T20:43:42;3.38;;;2.00;;
58516;SDS011;44308;50.810;0.284;2022-09-20T20:46:12;3.17;;;2.10;;
58516;SDS011;44308;50.810;0.284;2022-09-20T20:48:39;4.47;;;2.70;;
58516;SDS011;44308;50.810;0.284;2022-09-20T20:53:36;3.70;;;2.25;;
58516;SDS011;44308;50.810;0.284;2022-09-20T20:56:05;6.80;;;2.25;;
58516;SDS011;44308;50.810;0.284;2022-09-20T20:58:37;4.28;;;2.05;;
58516;SDS011;44308;50.810;0.284;2022-09-20T21:03:30;5.97;;;2.60;;
58516;SDS011;44308;50.810;0.284;2022-09-20T21:05:58;3.33;;;2.35;;
58516;SDS011;44308;50.810;0.284;2022-09-20T21:08:28;10.93;;;2.70;;
58516;SDS011;44308;50.810;0.284;2022-09-20T21:10:59;8.70;;;2.95;;
58516;SDS011;44308;50.810;0.284;2022-09-20T21:13:27;18.02;;;3.00;;
58516;SDS011;44308;50.810;0.284;2022-09-20T21:18:45;3.42;;;2.65;;
58516;SDS011;44308;50.810;0.284;2022-09-20T21:21:19;3.20;;;2.90;;
58516;SDS011;44308;50.810;0.284;2022-09-20T21:23:47;4.32;;;2.83;;
58516;SDS011;44308;50.810;0.284;2022-09-20T21:26:18;3.92;;;2.97;;
58516;SDS011;44308;50.810;0.284;2022-09-20T21:28:49;10.35;;;2.92;;
58516;SDS011;44308;50.810;0.284;2022-09-20T21:31:16;10.55;;;3.10;;
58516;SDS011;44308;50.810;0.284;2022-09-20T21:33:43;5.75;;;2.80;;